createdAt,value
2019-03-13T00:00:24.729Z,20.50
2019-03-13T00:02:53.439Z,20.50
2019-03-13T00:05:21.874Z,20.50
2019-03-13T00:07:50.188Z,20.40
2019-03-13T00:10:18.561Z,20.40
2019-03-13T00:12:47.279Z,20.40
2019-03-13T00:15:15.878Z,20.40
2019-03-13T00:17:44.186Z,20.40
2019-03-13T00:20:12.501Z,20.40
2019-03-13T00:22:41.088Z,20.40
2019-03-13T00:25:09.404Z,20.40
2019-03-13T00:27:37.700Z,20.40
2019-03-13T00:30:08.503Z,20.40
2019-03-13T00:32:37.056Z,20.40
2019-03-13T00:35:08.305Z,20.40
2019-03-13T00:37:36.992Z,20.30
2019-03-13T00:40:08.095Z,20.30
2019-03-13T00:42:38.128Z,20.30
2019-03-13T00:45:11.189Z,20.30
2019-03-13T00:47:39.504Z,20.30
2019-03-13T00:50:11.077Z,20.30
2019-03-13T00:52:39.464Z,20.30
2019-03-13T00:55:07.963Z,20.30
2019-03-13T00:57:36.643Z,20.30
2019-03-13T01:00:08.191Z,20.30
2019-03-13T01:02:38.520Z,20.20
2019-03-13T01:05:15.514Z,20.20
2019-03-13T01:07:44.084Z,20.30
2019-03-13T01:10:12.672Z,20.20
2019-03-13T01:12:41.256Z,20.20
2019-03-13T01:15:10.243Z,20.20
2019-03-13T01:17:39.227Z,20.20
2019-03-13T01:20:08.952Z,20.20
2019-03-13T01:22:37.265Z,20.20
2019-03-13T01:25:07.808Z,20.20
2019-03-13T01:27:36.439Z,20.20
2019-03-13T01:30:08.261Z,20.10
2019-03-13T01:32:44.474Z,20.10
2019-03-13T01:35:14.475Z,20.10
2019-03-13T01:37:42.779Z,20.10
2019-03-13T01:40:11.351Z,20.10
2019-03-13T01:42:39.919Z,20.10
2019-03-13T01:45:09.764Z,20.10
2019-03-13T01:47:38.043Z,20.10
2019-03-13T01:50:09.147Z,20.10
2019-03-13T01:52:37.436Z,20.10
2019-03-13T01:55:07.295Z,20.10
2019-03-13T01:57:35.582Z,20.10
2019-03-13T02:00:06.846Z,20.00
2019-03-13T02:02:35.143Z,20.00
2019-03-13T02:05:03.892Z,20.00
2019-03-13T02:07:32.200Z,20.00
2019-03-13T02:10:00.795Z,20.00
2019-03-13T02:12:29.351Z,20.00
2019-03-13T02:14:57.639Z,19.90
2019-03-13T02:17:25.943Z,19.90
2019-03-13T02:19:54.516Z,19.90
2019-03-13T02:22:22.825Z,19.90
2019-03-13T02:24:54.070Z,19.90
2019-03-13T02:27:21.167Z,19.90
2019-03-13T02:29:49.464Z,19.90
2019-03-13T02:32:17.756Z,19.90
2019-03-13T02:34:46.324Z,19.90
2019-03-13T02:37:14.630Z,19.90
2019-03-13T02:39:42.908Z,19.90
2019-03-13T02:42:11.213Z,19.80
2019-03-13T02:44:39.680Z,19.90
2019-03-13T02:47:08.328Z,19.80
2019-03-13T02:49:36.623Z,19.80
2019-03-13T02:52:06.004Z,19.80
2019-03-13T02:54:34.298Z,19.80
2019-03-13T02:57:02.876Z,19.80
2019-03-13T02:59:31.153Z,19.80
2019-03-13T03:02:02.610Z,19.80
2019-03-13T03:04:31.205Z,19.80
2019-03-13T03:06:59.495Z,19.80
2019-03-13T03:09:28.139Z,19.80
2019-03-13T03:11:56.451Z,19.80
2019-03-13T03:14:24.752Z,19.80
2019-03-13T03:16:53.106Z,19.80
2019-03-13T03:19:21.399Z,19.80
2019-03-13T03:21:49.702Z,19.80
2019-03-13T03:24:18.312Z,19.80
2019-03-13T03:26:46.592Z,19.80
2019-03-13T03:29:14.896Z,19.80
2019-03-13T03:31:43.185Z,19.80
2019-03-13T03:34:11.627Z,19.80
2019-03-13T03:36:40.186Z,19.80
2019-03-13T03:39:08.479Z,19.70
2019-03-13T03:41:36.779Z,19.70
2019-03-13T03:44:05.066Z,19.70
2019-03-13T03:46:33.359Z,19.70
2019-03-13T03:49:01.803Z,19.70
2019-03-13T03:51:30.378Z,19.70
2019-03-13T03:53:58.966Z,19.70
2019-03-13T03:56:27.260Z,19.70
2019-03-13T03:58:55.541Z,19.70
2019-03-13T04:01:24.199Z,19.70
2019-03-13T04:03:52.791Z,19.70
2019-03-13T04:06:21.367Z,19.70
2019-03-13T04:08:49.669Z,19.70
2019-03-13T04:11:18.331Z,19.60
2019-03-13T04:13:48.267Z,19.70
2019-03-13T04:16:16.627Z,19.60
2019-03-13T04:18:45.207Z,19.60
2019-03-13T04:21:13.918Z,19.60
2019-03-13T04:23:42.251Z,19.70
2019-03-13T04:26:12.784Z,19.60
2019-03-13T04:28:40.585Z,19.60
2019-03-13T04:31:09.153Z,19.60
2019-03-13T04:33:39.375Z,19.60
2019-03-13T04:36:07.663Z,19.60
2019-03-13T04:38:35.963Z,19.60
2019-03-13T04:41:04.509Z,19.60
2019-03-13T04:43:33.195Z,19.60
2019-03-13T04:46:01.513Z,19.60
2019-03-13T04:48:30.055Z,19.60
2019-03-13T04:50:58.637Z,19.50
2019-03-13T04:53:26.918Z,19.60
2019-03-13T04:55:55.243Z,19.60
2019-03-13T04:58:23.883Z,19.60
2019-03-13T05:00:52.350Z,19.60
2019-03-13T05:03:20.646Z,19.50
2019-03-13T05:05:50.277Z,19.60
2019-03-13T05:08:44.945Z,19.50
2019-03-13T05:11:06.866Z,19.50
2019-03-13T05:13:35.142Z,19.60
2019-03-13T05:16:03.835Z,19.60
2019-03-13T05:18:32.414Z,19.50
2019-03-13T05:21:00.714Z,19.60
2019-03-13T05:23:29.271Z,19.50
2019-03-13T05:25:57.576Z,19.50
2019-03-13T05:28:26.139Z,19.50
2019-03-13T05:30:54.823Z,19.50
2019-03-13T05:33:23.407Z,19.50
2019-03-13T05:35:51.695Z,19.50
2019-03-13T05:38:19.968Z,19.50
2019-03-13T05:40:48.558Z,19.50
2019-03-13T05:43:17.149Z,19.50
2019-03-13T05:45:45.442Z,19.50
2019-03-13T05:48:13.722Z,19.50
2019-03-13T05:50:42.018Z,19.50
2019-03-13T05:53:10.651Z,19.50
2019-03-13T05:55:38.942Z,19.50
2019-03-13T05:58:07.237Z,19.50
2019-03-13T06:00:35.517Z,19.50
2019-03-13T06:03:04.155Z,19.50
2019-03-13T06:05:32.747Z,19.40
2019-03-13T06:08:01.041Z,19.40
2019-03-13T06:10:29.346Z,19.50
2019-03-13T06:12:57.986Z,19.50
2019-03-13T06:15:26.275Z,19.40
2019-03-13T06:17:54.587Z,19.40
2019-03-13T06:20:23.227Z,19.40
2019-03-13T06:22:51.518Z,19.40
2019-03-13T06:25:19.826Z,19.40
2019-03-13T06:27:48.132Z,19.40
2019-03-13T06:30:21.066Z,19.40
2019-03-13T06:32:49.615Z,19.40
2019-03-13T06:35:17.974Z,19.40
2019-03-13T06:37:46.578Z,19.40
2019-03-13T06:40:17.376Z,19.40
2019-03-13T06:42:46.005Z,19.30
2019-03-13T06:45:17.398Z,19.30
2019-03-13T06:47:45.680Z,19.40
2019-03-13T06:50:19.276Z,19.40
2019-03-13T06:52:47.622Z,19.40
2019-03-13T06:55:15.940Z,19.40
2019-03-13T06:57:44.258Z,19.40
2019-03-13T07:00:33.535Z,19.40
2019-03-13T07:03:09.203Z,19.40
2019-03-13T07:05:48.225Z,19.40
2019-03-13T07:08:20.737Z,19.50
2019-03-13T07:11:07.300Z,19.50
2019-03-13T07:13:40.175Z,19.70
2019-03-13T07:16:10.105Z,19.80
2019-03-13T07:18:40.109Z,20.00
2019-03-13T07:21:10.075Z,20.10
2019-03-13T07:23:40.039Z,20.20
2019-03-13T07:26:21.592Z,20.30
2019-03-13T07:28:52.587Z,20.40
2019-03-13T07:31:25.666Z,20.50
2019-03-13T07:34:14.417Z,20.50
2019-03-13T07:36:47.097Z,20.60
2019-03-13T07:39:32.374Z,20.60
2019-03-13T07:42:10.885Z,20.60
2019-03-13T07:44:57.502Z,20.60
2019-03-13T07:47:29.278Z,20.40
2019-03-13T07:49:59.495Z,20.40
2019-03-13T07:52:32.942Z,20.30
2019-03-13T07:55:06.059Z,20.30
2019-03-13T07:57:54.623Z,20.20
2019-03-13T08:00:27.403Z,20.30
2019-03-13T08:03:06.309Z,20.40
2019-03-13T08:05:36.552Z,20.50
2019-03-13T08:08:06.770Z,20.60
2019-03-13T08:10:39.409Z,20.70
2019-03-13T08:13:34.579Z,20.80
2019-03-13T08:16:07.847Z,20.80
2019-03-13T08:18:54.254Z,20.80
2019-03-13T08:21:24.472Z,20.70
2019-03-13T08:24:10.774Z,20.70
2019-03-13T08:26:57.222Z,20.60
2019-03-13T08:29:36.406Z,20.50
2019-03-13T08:32:22.776Z,20.50
2019-03-13T08:34:54.668Z,20.40
2019-03-13T08:37:27.863Z,20.40
2019-03-13T08:40:03.670Z,20.30
2019-03-13T08:42:33.608Z,20.30
2019-03-13T08:45:06.390Z,20.20
2019-03-13T08:47:53.017Z,20.20
2019-03-13T08:50:31.718Z,20.20
2019-03-13T08:53:16.498Z,20.20
2019-03-13T08:55:46.447Z,20.20
2019-03-13T08:58:31.463Z,20.30
2019-03-13T09:01:01.763Z,20.50
2019-03-13T09:03:34.462Z,20.60
2019-03-13T09:06:16.295Z,20.70
2019-03-13T09:09:02.492Z,20.80
2019-03-13T09:11:50.626Z,20.90
2019-03-13T09:14:26.208Z,20.80
2019-03-13T09:17:12.384Z,20.70
2019-03-13T09:19:53.961Z,20.70
2019-03-13T09:22:39.027Z,20.60
2019-03-13T09:25:12.559Z,20.50
2019-03-13T09:27:59.207Z,20.50
2019-03-13T09:30:29.174Z,20.40
2019-03-13T09:33:07.998Z,20.50
2019-03-13T09:35:42.296Z,20.60
2019-03-13T09:38:12.222Z,20.60
2019-03-13T09:40:48.331Z,20.70
2019-03-13T09:43:24.098Z,20.80
2019-03-13T09:45:56.980Z,20.90
2019-03-13T09:48:32.754Z,21.00
2019-03-13T09:51:08.818Z,21.00
2019-03-13T09:53:38.759Z,21.00
2019-03-13T09:56:14.650Z,20.90
2019-03-13T09:58:44.909Z,20.80
2019-03-13T10:04:18.628Z,20.60
2019-03-13T10:06:51.267Z,20.60
2019-03-13T10:09:21.228Z,20.50
2019-03-13T10:12:06.385Z,20.50
2019-03-13T10:14:36.622Z,20.50
2019-03-13T10:17:15.420Z,20.40
2019-03-13T10:19:51.502Z,20.50
2019-03-13T10:22:38.219Z,20.50
2019-03-13T10:25:20.724Z,20.70
2019-03-13T10:27:56.546Z,20.90
2019-03-13T10:30:29.258Z,21.00
2019-03-13T10:33:15.766Z,21.10
2019-03-13T10:35:45.992Z,21.00
2019-03-13T10:38:27.910Z,21.00
2019-03-13T10:41:00.423Z,20.90
2019-03-13T10:43:30.690Z,20.80
2019-03-13T10:46:19.235Z,20.70
2019-03-13T10:49:05.590Z,20.70
2019-03-13T10:51:38.739Z,20.60
2019-03-13T10:54:08.737Z,20.60
2019-03-13T10:56:41.535Z,20.50
2019-03-13T10:59:11.715Z,20.50
2019-03-13T11:01:41.658Z,20.50
2019-03-13T11:04:14.338Z,20.40
2019-03-13T11:07:01.152Z,20.50
2019-03-13T11:09:43.659Z,20.60
2019-03-13T11:12:19.535Z,20.70
2019-03-13T11:14:52.711Z,20.80
2019-03-13T11:17:22.653Z,21.00
2019-03-13T11:20:01.441Z,21.10
2019-03-13T11:22:34.273Z,21.20
2019-03-13T11:25:20.939Z,21.20
2019-03-13T11:28:00.350Z,21.20
2019-03-13T11:30:30.275Z,21.20
2019-03-13T11:33:16.695Z,21.10
2019-03-13T11:35:49.611Z,21.00
2019-03-13T11:38:25.533Z,20.90
2019-03-13T11:41:07.843Z,20.80
2019-03-13T11:43:41.112Z,20.80
2019-03-13T11:46:18.890Z,20.70
2019-03-13T11:48:57.806Z,20.60
2019-03-13T11:51:30.574Z,20.60
2019-03-13T11:54:00.872Z,20.60
2019-03-13T11:56:46.140Z,20.60
2019-03-13T11:59:31.198Z,20.50
2019-03-13T12:02:01.429Z,20.50
2019-03-13T12:04:40.564Z,20.50
2019-03-13T12:07:22.432Z,20.50
2019-03-13T12:10:08.353Z,20.50
2019-03-13T12:12:38.571Z,20.50
2019-03-13T12:15:20.585Z,20.40
2019-03-13T12:18:02.415Z,20.50
2019-03-13T12:20:44.178Z,20.60
2019-03-13T12:23:14.108Z,20.80
2019-03-13T12:25:46.958Z,20.90
2019-03-13T12:28:28.873Z,21.00
2019-03-13T12:31:14.211Z,21.10
2019-03-13T12:33:46.670Z,21.10
2019-03-13T12:36:28.800Z,21.00
2019-03-13T12:39:01.542Z,20.90
2019-03-13T12:41:37.491Z,20.80
2019-03-13T12:44:25.715Z,20.80
2019-03-13T12:47:01.534Z,20.80
2019-03-13T12:49:31.460Z,20.70
2019-03-13T12:52:13.364Z,20.70
2019-03-13T12:54:43.295Z,20.70
2019-03-13T12:57:28.243Z,20.60
2019-03-13T12:59:58.173Z,20.70
2019-03-13T13:02:28.117Z,20.60
2019-03-13T13:05:13.231Z,20.70
2019-03-13T13:07:43.171Z,20.60
2019-03-13T13:10:22.376Z,20.60
2019-03-13T13:13:07.395Z,20.60
2019-03-13T13:15:49.874Z,20.70
2019-03-13T13:18:36.434Z,20.80
2019-03-13T13:21:04.719Z,20.90
2019-03-13T13:23:33.003Z,20.90
2019-03-13T13:26:01.341Z,20.90
2019-03-13T13:28:29.669Z,20.90
2019-03-13T13:30:57.978Z,20.80
2019-03-13T13:33:26.551Z,20.80
2019-03-13T13:35:55.119Z,20.80
2019-03-13T13:38:23.415Z,20.70
2019-03-13T13:40:52.077Z,20.70
2019-03-13T13:43:20.351Z,20.70
2019-03-13T13:45:51.800Z,20.70
2019-03-13T13:48:20.389Z,20.60
2019-03-13T13:50:48.687Z,20.60
2019-03-13T13:53:16.976Z,20.60
2019-03-13T13:55:45.257Z,20.60
2019-03-13T13:58:13.578Z,20.70
2019-03-13T14:00:41.850Z,20.70
2019-03-13T14:03:10.157Z,20.70
2019-03-13T14:05:40.942Z,20.70
2019-03-13T14:08:08.474Z,20.60
2019-03-13T14:10:37.035Z,20.70
2019-03-13T14:13:05.354Z,20.60
2019-03-13T14:15:33.647Z,20.70
2019-03-13T14:18:02.267Z,20.60
2019-03-13T14:20:30.850Z,20.60
2019-03-13T14:22:59.430Z,20.60
2019-03-13T14:25:27.715Z,20.60
2019-03-13T14:27:56.021Z,20.60
2019-03-13T14:30:24.301Z,20.60
2019-03-13T14:32:52.603Z,20.60
2019-03-13T14:35:21.226Z,20.60
2019-03-13T14:37:49.526Z,20.60
2019-03-13T14:40:18.863Z,20.60
2019-03-13T14:42:47.249Z,20.60
2019-03-13T14:45:18.019Z,20.60
2019-03-13T14:47:46.336Z,20.60
2019-03-13T14:50:20.310Z,20.60
2019-03-13T14:52:48.621Z,20.50
2019-03-13T14:55:18.401Z,20.60
2019-03-13T14:57:46.982Z,20.60
2019-03-13T15:00:22.615Z,20.70
2019-03-13T15:02:51.020Z,20.70
2019-03-13T15:05:19.694Z,20.70
2019-03-13T15:07:47.986Z,20.70
2019-03-13T15:10:17.880Z,20.70
2019-03-13T15:12:46.192Z,20.70
2019-03-13T15:15:18.942Z,20.70
2019-03-13T15:17:47.555Z,20.70
2019-03-13T15:20:21.721Z,20.70
2019-03-13T15:22:50.535Z,20.70
2019-03-13T15:25:18.838Z,20.60
2019-03-13T15:27:47.149Z,20.60
2019-03-13T15:30:24.442Z,20.60
2019-03-13T15:32:53.062Z,20.60
2019-03-13T15:35:21.643Z,20.60
2019-03-13T15:37:50.062Z,20.60
2019-03-13T15:40:19.157Z,20.70
2019-03-13T15:42:47.698Z,20.90
2019-03-13T15:45:33.868Z,20.90
2019-03-13T15:48:02.515Z,21.00
2019-03-13T15:50:30.810Z,20.90
2019-03-13T15:52:59.446Z,20.90
2019-03-13T15:55:28.032Z,20.90
2019-03-13T15:57:56.351Z,20.80
2019-03-13T16:00:28.986Z,20.80
2019-03-13T16:02:57.304Z,20.80
2019-03-13T16:05:25.605Z,20.70
2019-03-13T16:07:53.908Z,20.70
2019-03-13T16:10:22.226Z,20.70
2019-03-13T16:12:51.578Z,20.70
2019-03-13T16:15:26.975Z,20.60
2019-03-13T16:17:55.267Z,20.60
2019-03-13T16:20:23.603Z,20.60
2019-03-13T16:22:56.298Z,20.60
2019-03-13T16:25:24.891Z,20.60
2019-03-13T16:27:53.424Z,20.60
2019-03-13T16:30:29.906Z,20.60
2019-03-13T16:32:58.220Z,20.60
2019-03-13T16:35:26.715Z,20.60
2019-03-13T16:37:55.192Z,20.50
2019-03-13T16:40:23.479Z,20.60
2019-03-13T16:42:51.809Z,20.50
2019-03-13T16:45:21.156Z,20.50
2019-03-13T16:47:49.458Z,20.50
2019-03-13T16:50:37.218Z,20.50
2019-03-13T16:53:05.528Z,20.50
2019-03-13T16:55:34.186Z,20.50
2019-03-13T16:58:02.762Z,20.60
2019-03-13T17:00:32.525Z,20.70
2019-03-13T17:03:01.216Z,20.80
2019-03-13T17:05:29.568Z,20.90
2019-03-13T17:07:57.966Z,20.90
2019-03-13T17:10:27.377Z,20.90
2019-03-13T17:12:56.012Z,20.90
2019-03-13T17:15:25.104Z,20.80
2019-03-13T17:17:53.872Z,20.80
2019-03-13T17:20:29.908Z,20.70
2019-03-13T17:22:58.643Z,20.70
2019-03-13T17:25:26.938Z,20.70
2019-03-13T17:27:55.496Z,20.70
2019-03-13T17:30:28.230Z,20.60
2019-03-13T17:32:56.867Z,20.60
2019-03-13T17:35:25.552Z,20.60
2019-03-13T17:37:53.843Z,20.60
2019-03-13T17:40:31.396Z,20.60
2019-03-13T17:43:00.007Z,20.60
2019-03-13T17:45:29.607Z,20.60
2019-03-13T17:47:57.911Z,20.60
2019-03-13T17:50:26.233Z,20.60
2019-03-13T17:52:54.850Z,20.60
2019-03-13T17:55:24.478Z,20.60
2019-03-13T17:57:53.149Z,20.60
2019-03-13T18:00:50.101Z,20.60
2019-03-13T18:03:19.089Z,20.60
2019-03-13T18:05:47.375Z,20.60
2019-03-13T18:08:15.697Z,20.60
2019-03-13T18:10:43.986Z,20.50
2019-03-13T18:13:12.679Z,20.50
2019-03-13T18:15:41.320Z,20.60
2019-03-13T18:18:09.639Z,20.50
2019-03-13T18:20:37.938Z,20.50
2019-03-13T18:23:08.899Z,20.60
2019-03-13T18:25:37.325Z,20.60
2019-03-13T18:28:05.943Z,20.60
2019-03-13T18:30:35.475Z,20.70
2019-03-13T18:33:03.838Z,20.70
2019-03-13T18:35:32.401Z,20.70
2019-03-13T18:38:00.703Z,20.70
2019-03-13T18:40:29.387Z,20.70
2019-03-13T18:42:57.970Z,20.70
2019-03-13T18:45:27.809Z,20.60
2019-03-13T18:47:56.451Z,20.60
2019-03-13T18:50:24.852Z,20.60
2019-03-13T18:52:53.647Z,20.60
2019-03-13T18:55:29.998Z,20.60
2019-03-13T18:57:59.350Z,20.60
2019-03-13T19:00:31.283Z,20.60
2019-03-13T19:02:59.839Z,20.50
2019-03-13T19:05:29.671Z,20.60
2019-03-13T19:07:57.988Z,20.60
2019-03-13T19:10:30.923Z,20.60
2019-03-13T19:12:59.502Z,20.70
2019-03-13T19:15:28.171Z,20.80
2019-03-13T19:17:56.553Z,20.90
2019-03-13T19:20:27.045Z,21.00
2019-03-13T19:22:55.689Z,21.20
2019-03-13T19:25:24.087Z,21.20
2019-03-13T19:27:52.381Z,21.20
2019-03-13T19:30:32.286Z,21.10
2019-03-13T19:33:00.902Z,21.10
2019-03-13T19:35:29.579Z,21.00
2019-03-13T19:38:07.362Z,21.00
2019-03-13T19:40:35.692Z,20.90
2019-03-13T19:43:04.071Z,20.90
2019-03-13T19:45:41.622Z,20.90
2019-03-13T19:48:10.324Z,20.80
2019-03-13T19:50:39.214Z,20.80
2019-03-13T19:53:07.768Z,20.80
2019-03-13T19:55:36.370Z,20.80
2019-03-13T19:58:05.046Z,20.80
2019-03-13T20:00:33.452Z,20.80
2019-03-13T20:03:16.043Z,20.70
2019-03-13T20:05:46.231Z,20.70
2019-03-13T20:08:14.423Z,20.70
2019-03-13T20:10:43.095Z,20.70
2019-03-13T20:13:11.390Z,20.70
2019-03-13T20:15:40.079Z,20.60
2019-03-13T20:18:08.665Z,20.60
2019-03-13T20:20:37.251Z,20.70
2019-03-13T20:23:10.846Z,20.70
2019-03-13T20:25:39.153Z,20.60
2019-03-13T20:28:07.433Z,20.70
2019-03-13T20:30:35.850Z,20.60
2019-03-13T20:33:04.145Z,20.70
2019-03-13T20:35:32.436Z,20.60
2019-03-13T20:38:01.011Z,20.60
2019-03-13T20:40:30.105Z,20.70
2019-03-13T20:43:02.251Z,20.70
2019-03-13T20:45:31.035Z,20.70
2019-03-13T20:47:59.454Z,20.70
2019-03-13T20:50:36.620Z,20.70
2019-03-13T20:52:58.062Z,20.70
2019-03-13T20:55:26.370Z,20.70
2019-03-13T20:57:54.738Z,20.70
2019-03-13T21:00:26.699Z,20.70
2019-03-13T21:02:56.076Z,20.70
2019-03-13T21:05:25.110Z,20.70
2019-03-13T21:07:54.165Z,20.60
2019-03-13T21:10:22.735Z,20.60
2019-03-13T21:12:51.323Z,20.60
2019-03-13T21:15:25.027Z,20.70
2019-03-13T21:17:53.434Z,20.60
2019-03-13T21:20:22.100Z,20.60
2019-03-13T21:22:50.397Z,20.60
2019-03-13T21:25:21.071Z,20.60
2019-03-13T21:27:49.382Z,20.60
2019-03-13T21:30:26.151Z,20.70
2019-03-13T21:32:54.534Z,20.70
2019-03-13T21:35:23.506Z,20.70
2019-03-13T21:37:52.133Z,20.70
2019-03-13T21:40:25.674Z,20.70
2019-03-13T21:42:54.979Z,20.70
2019-03-13T21:45:23.754Z,20.70
2019-03-13T21:47:52.390Z,20.70
2019-03-13T21:50:20.966Z,20.70
2019-03-13T21:52:49.360Z,20.70
2019-03-13T21:55:18.400Z,20.70
2019-03-13T21:57:46.695Z,20.60
2019-03-13T22:00:28.002Z,20.60
2019-03-13T22:02:56.303Z,20.60
2019-03-13T22:05:26.954Z,20.60
2019-03-13T22:07:54.985Z,20.60
2019-03-13T22:10:24.282Z,20.60
2019-03-13T22:12:52.639Z,20.60
2019-03-13T22:15:24.139Z,20.70
2019-03-13T22:17:52.797Z,20.60
2019-03-13T22:20:21.103Z,20.70
2019-03-13T22:22:49.484Z,20.70
2019-03-13T22:25:18.856Z,20.60
2019-03-13T22:27:47.442Z,20.60
2019-03-13T22:30:22.283Z,20.60
2019-03-13T22:32:50.587Z,20.60
2019-03-13T22:35:19.250Z,20.60
2019-03-13T22:37:47.844Z,20.60
2019-03-13T22:40:17.121Z,20.60
2019-03-13T22:42:45.709Z,20.60
2019-03-13T22:45:18.502Z,20.70
2019-03-13T22:47:46.786Z,20.60
2019-03-13T22:50:19.269Z,20.60
2019-03-13T22:52:49.191Z,20.70
2019-03-13T22:55:17.843Z,20.80
2019-03-13T22:57:46.348Z,20.90
2019-03-13T23:00:57.706Z,21.00
2019-03-13T23:03:27.324Z,21.10
2019-03-13T23:05:55.997Z,21.10
2019-03-13T23:08:24.294Z,21.10
2019-03-13T23:10:52.603Z,21.00
2019-03-13T23:13:21.144Z,21.00
2019-03-13T23:15:52.699Z,21.00
2019-03-13T23:18:21.371Z,20.90
2019-03-13T23:20:49.973Z,20.90
2019-03-13T23:23:18.278Z,20.80
2019-03-13T23:25:46.625Z,20.80
2019-03-13T23:28:14.933Z,20.80
2019-03-13T23:30:43.675Z,20.80
2019-03-13T23:33:12.394Z,20.80
2019-03-13T23:35:40.760Z,20.80
2019-03-13T23:38:09.134Z,20.80
2019-03-13T23:40:37.819Z,20.80
2019-03-13T23:43:06.388Z,20.70
2019-03-13T23:45:34.686Z,20.80
2019-03-13T23:48:03.069Z,20.70
2019-03-13T23:50:31.497Z,20.70
2019-03-13T23:53:00.118Z,20.70
2019-03-13T23:55:28.705Z,20.70
2019-03-13T23:57:57.279Z,20.70
